sensor_id;sensor_type;location;lat;lon;timestamp;P1;durP1;ratioP1;P2;durP2;ratioP2
56670;SDS011;42545;50.054;8.306;2023-03-20T00:00:22;2.10;;;1.77;;
56670;SDS011;42545;50.054;8.306;2023-03-20T00:02:54;2.42;;;2.10;;
56670;SDS011;42545;50.054;8.306;2023-03-20T00:05:21;2.35;;;1.88;;
56670;SDS011;42545;50.054;8.306;2023-03-20T00:07:49;2.40;;;1.90;;
56670;SDS011;42545;50.054;8.306;2023-03-20T00:10:17;2.22;;;1.77;;
56670;SDS011;42545;50.054;8.306;2023-03-20T00:12:45;2.88;;;2.30;;
56670;SDS011;42545;50.054;8.306;2023-03-20T00:15:16;3.17;;;2.63;;
56670;SDS011;42545;50.054;8.306;2023-03-20T00:17:51;5.35;;;3.88;;
56670;SDS011;42545;50.054;8.306;2023-03-20T00:20:18;6.35;;;4.78;;
56670;SDS011;42545;50.054;8.306;2023-03-20T00:22:45;4.70;;;3.47;;
56670;SDS011;42545;50.054;8.306;2023-03-20T00:25:13;5.40;;;4.40;;
56670;SDS011;42545;50.054;8.306;2023-03-20T00:27:41;5.57;;;4.10;;
56670;SDS011;42545;50.054;8.306;2023-03-20T00:30:15;4.88;;;3.67;;
56670;SDS011;42545;50.054;8.306;2023-03-20T00:32:45;4.82;;;3.90;;
56670;SDS011;42545;50.054;8.306;2023-03-20T00:35:17;6.25;;;4.75;;
56670;SDS011;42545;50.054;8.306;2023-03-20T00:37:45;4.63;;;3.67;;
56670;SDS011;42545;50.054;8.306;2023-03-20T00:40:13;5.40;;;3.72;;
56670;SDS011;42545;50.054;8.306;2023-03-20T00:42:41;4.38;;;3.20;;
56670;SDS011;42545;50.054;8.306;2023-03-20T00:45:09;5.78;;;4.32;;
56670;SDS011;42545;50.054;8.306;2023-03-20T00:47:40;5.65;;;4.05;;
56670;SDS011;42545;50.054;8.306;2023-03-20T00:50:13;6.70;;;4.50;;
56670;SDS011;42545;50.054;8.306;2023-03-20T00:52:43;6.50;;;4.70;;
56670;SDS011;42545;50.054;8.306;2023-03-20T00:55:10;6.20;;;4.47;;
56670;SDS011;42545;50.054;8.306;2023-03-20T00:57:38;6.25;;;4.53;;
56670;SDS011;42545;50.054;8.306;2023-03-20T01:00:17;6.80;;;4.60;;
56670;SDS011;42545;50.054;8.306;2023-03-20T01:02:48;6.93;;;5.10;;
56670;SDS011;42545;50.054;8.306;2023-03-20T01:05:16;7.07;;;4.95;;
56670;SDS011;42545;50.054;8.306;2023-03-20T01:07:46;6.15;;;4.72;;
56670;SDS011;42545;50.054;8.306;2023-03-20T01:10:13;6.78;;;5.40;;
56670;SDS011;42545;50.054;8.306;2023-03-20T01:12:40;5.78;;;4.20;;
56670;SDS011;42545;50.054;8.306;2023-03-20T01:15:15;6.72;;;5.18;;
56670;SDS011;42545;50.054;8.306;2023-03-20T01:17:44;8.38;;;5.88;;
56670;SDS011;42545;50.054;8.306;2023-03-20T01:20:19;6.53;;;5.20;;
56670;SDS011;42545;50.054;8.306;2023-03-20T01:22:50;7.45;;;5.82;;
56670;SDS011;42545;50.054;8.306;2023-03-20T01:25:16;7.03;;;4.95;;
56670;SDS011;42545;50.054;8.306;2023-03-20T01:27:44;5.78;;;4.65;;
56670;SDS011;42545;50.054;8.306;2023-03-20T01:30:16;5.93;;;4.25;;
56670;SDS011;42545;50.054;8.306;2023-03-20T01:32:44;6.32;;;4.32;;
56670;SDS011;42545;50.054;8.306;2023-03-20T01:35:12;4.88;;;3.72;;
56670;SDS011;42545;50.054;8.306;2023-03-20T01:37:40;5.13;;;3.88;;
56670;SDS011;42545;50.054;8.306;2023-03-20T01:40:11;4.22;;;3.35;;
56670;SDS011;42545;50.054;8.306;2023-03-20T01:42:44;4.15;;;3.40;;
56670;SDS011;42545;50.054;8.306;2023-03-20T01:45:13;5.65;;;3.70;;
56670;SDS011;42545;50.054;8.306;2023-03-20T01:47:43;3.92;;;3.13;;
56670;SDS011;42545;50.054;8.306;2023-03-20T01:50:17;3.83;;;3.10;;
56670;SDS011;42545;50.054;8.306;2023-03-20T01:52:48;3.40;;;2.63;;
56670;SDS011;42545;50.054;8.306;2023-03-20T01:55:19;3.33;;;2.38;;
56670;SDS011;42545;50.054;8.306;2023-03-20T01:57:46;2.80;;;2.40;;
56670;SDS011;42545;50.054;8.306;2023-03-20T02:00:16;2.75;;;2.40;;
56670;SDS011;42545;50.054;8.306;2023-03-20T02:02:43;4.28;;;3.25;;
56670;SDS011;42545;50.054;8.306;2023-03-20T02:05:12;6.78;;;4.97;;
56670;SDS011;42545;50.054;8.306;2023-03-20T02:07:44;5.65;;;4.40;;
56670;SDS011;42545;50.054;8.306;2023-03-20T02:10:16;6.13;;;3.95;;
56670;SDS011;42545;50.054;8.306;2023-03-20T02:12:45;4.75;;;3.65;;
56670;SDS011;42545;50.054;8.306;2023-03-20T02:15:12;4.65;;;3.47;;
56670;SDS011;42545;50.054;8.306;2023-03-20T02:17:42;4.30;;;3.50;;
56670;SDS011;42545;50.054;8.306;2023-03-20T02:20:11;4.15;;;3.35;;
56670;SDS011;42545;50.054;8.306;2023-03-20T02:22:58;4.03;;;3.08;;
56670;SDS011;42545;50.054;8.306;2023-03-20T02:26:16;3.60;;;2.90;;
56670;SDS011;42545;50.054;8.306;2023-03-20T02:29:12;4.40;;;3.17;;
56670;SDS011;42545;50.054;8.306;2023-03-20T02:32:01;3.70;;;2.97;;
56670;SDS011;42545;50.054;8.306;2023-03-20T02:35:13;4.43;;;3.33;;
56670;SDS011;42545;50.054;8.306;2023-03-20T02:38:00;4.05;;;3.15;;
56670;SDS011;42545;50.054;8.306;2023-03-20T02:40:41;4.28;;;2.97;;
56670;SDS011;42545;50.054;8.306;2023-03-20T02:43:13;4.15;;;3.00;;
56670;SDS011;42545;50.054;8.306;2023-03-20T02:45:47;2.80;;;2.50;;
56670;SDS011;42545;50.054;8.306;2023-03-20T02:48:25;4.88;;;3.38;;
56670;SDS011;42545;50.054;8.306;2023-03-20T02:51:00;4.72;;;3.25;;
56670;SDS011;42545;50.054;8.306;2023-03-20T02:53:33;4.05;;;3.05;;
56670;SDS011;42545;50.054;8.306;2023-03-20T02:56:08;4.93;;;3.92;;
56670;SDS011;42545;50.054;8.306;2023-03-20T02:58:45;6.60;;;4.97;;
56670;SDS011;42545;50.054;8.306;2023-03-20T03:01:16;4.93;;;3.80;;
56670;SDS011;42545;50.054;8.306;2023-03-20T03:03:48;4.50;;;3.33;;
56670;SDS011;42545;50.054;8.306;2023-03-20T03:06:20;3.88;;;3.13;;
56670;SDS011;42545;50.054;8.306;2023-03-20T03:08:53;4.85;;;3.15;;
56670;SDS011;42545;50.054;8.306;2023-03-20T03:11:24;3.58;;;2.85;;
56670;SDS011;42545;50.054;8.306;2023-03-20T03:13:53;3.17;;;2.67;;
56670;SDS011;42545;50.054;8.306;2023-03-20T03:16:23;3.45;;;2.50;;
56670;SDS011;42545;50.054;8.306;2023-03-20T03:21:24;2.92;;;1.95;;
56670;SDS011;42545;50.054;8.306;2023-03-20T03:23:53;2.83;;;2.30;;
56670;SDS011;42545;50.054;8.306;2023-03-20T03:26:21;2.45;;;2.08;;
56670;SDS011;42545;50.054;8.306;2023-03-20T03:28:52;2.25;;;1.83;;
56670;SDS011;42545;50.054;8.306;2023-03-20T03:31:21;2.00;;;1.70;;
56670;SDS011;42545;50.054;8.306;2023-03-20T03:33:50;2.17;;;1.70;;
56670;SDS011;42545;50.054;8.306;2023-03-20T03:36:22;1.60;;;1.50;;
56670;SDS011;42545;50.054;8.306;2023-03-20T03:39:02;1.80;;;1.50;;
56670;SDS011;42545;50.054;8.306;2023-03-20T03:41:37;1.33;;;1.20;;
56670;SDS011;42545;50.054;8.306;2023-03-20T03:44:09;2.17;;;1.60;;
56670;SDS011;42545;50.054;8.306;2023-03-20T03:46:40;1.73;;;1.40;;
56670;SDS011;42545;50.054;8.306;2023-03-20T03:49:13;1.60;;;1.27;;
56670;SDS011;42545;50.054;8.306;2023-03-20T03:51:42;2.20;;;1.80;;
56670;SDS011;42545;50.054;8.306;2023-03-20T03:54:14;3.38;;;2.60;;
56670;SDS011;42545;50.054;8.306;2023-03-20T03:56:45;2.40;;;1.95;;
56670;SDS011;42545;50.054;8.306;2023-03-20T03:59:16;2.73;;;2.00;;
56670;SDS011;42545;50.054;8.306;2023-03-20T04:01:48;3.25;;;2.20;;
56670;SDS011;42545;50.054;8.306;2023-03-20T04:04:17;2.38;;;2.00;;
56670;SDS011;42545;50.054;8.306;2023-03-20T04:06:46;2.75;;;2.20;;
56670;SDS011;42545;50.054;8.306;2023-03-20T04:09:12;4.07;;;2.80;;
56670;SDS011;42545;50.054;8.306;2023-03-20T04:11:41;3.25;;;2.28;;
56670;SDS011;42545;50.054;8.306;2023-03-20T04:14:08;3.53;;;2.30;;
56670;SDS011;42545;50.054;8.306;2023-03-20T04:16:35;2.60;;;2.13;;
56670;SDS011;42545;50.054;8.306;2023-03-20T04:19:04;3.33;;;2.88;;
56670;SDS011;42545;50.054;8.306;2023-03-20T04:21:30;4.65;;;3.33;;
56670;SDS011;42545;50.054;8.306;2023-03-20T04:23:57;3.97;;;2.95;;
56670;SDS011;42545;50.054;8.306;2023-03-20T04:26:24;5.03;;;3.75;;
56670;SDS011;42545;50.054;8.306;2023-03-20T04:28:53;4.68;;;3.60;;
56670;SDS011;42545;50.054;8.306;2023-03-20T04:31:19;4.85;;;3.90;;
56670;SDS011;42545;50.054;8.306;2023-03-20T04:33:47;5.30;;;3.38;;
56670;SDS011;42545;50.054;8.306;2023-03-20T04:36:13;5.90;;;3.60;;
56670;SDS011;42545;50.054;8.306;2023-03-20T04:38:40;4.95;;;3.60;;
56670;SDS011;42545;50.054;8.306;2023-03-20T04:41:07;4.70;;;3.40;;
56670;SDS011;42545;50.054;8.306;2023-03-20T04:43:34;4.88;;;3.20;;
56670;SDS011;42545;50.054;8.306;2023-03-20T04:46:02;5.28;;;3.17;;
56670;SDS011;42545;50.054;8.306;2023-03-20T04:48:29;5.40;;;4.05;;
56670;SDS011;42545;50.054;8.306;2023-03-20T04:50:55;9.02;;;5.82;;
56670;SDS011;42545;50.054;8.306;2023-03-20T04:53:22;9.00;;;5.97;;
56670;SDS011;42545;50.054;8.306;2023-03-20T04:55:49;10.50;;;6.72;;
56670;SDS011;42545;50.054;8.306;2023-03-20T04:58:16;8.38;;;5.85;;
56670;SDS011;42545;50.054;8.306;2023-03-20T05:00:43;7.40;;;5.40;;
56670;SDS011;42545;50.054;8.306;2023-03-20T05:03:11;11.00;;;6.72;;
56670;SDS011;42545;50.054;8.306;2023-03-20T05:05:38;8.88;;;5.50;;
56670;SDS011;42545;50.054;8.306;2023-03-20T05:08:05;13.68;;;9.32;;
56670;SDS011;42545;50.054;8.306;2023-03-20T05:10:32;17.90;;;11.00;;
56670;SDS011;42545;50.054;8.306;2023-03-20T05:12:58;16.27;;;9.55;;
56670;SDS011;42545;50.054;8.306;2023-03-20T05:15:25;18.95;;;9.93;;
56670;SDS011;42545;50.054;8.306;2023-03-20T05:17:52;18.50;;;10.63;;
56670;SDS011;42545;50.054;8.306;2023-03-20T05:20:20;31.42;;;12.68;;
56670;SDS011;42545;50.054;8.306;2023-03-20T05:22:48;28.58;;;12.13;;
56670;SDS011;42545;50.054;8.306;2023-03-20T05:25:15;25.45;;;11.15;;
56670;SDS011;42545;50.054;8.306;2023-03-20T05:27:43;26.23;;;13.15;;
56670;SDS011;42545;50.054;8.306;2023-03-20T05:30:10;27.38;;;13.23;;
56670;SDS011;42545;50.054;8.306;2023-03-20T05:32:38;23.23;;;11.27;;
56670;SDS011;42545;50.054;8.306;2023-03-20T05:35:06;31.40;;;14.45;;
56670;SDS011;42545;50.054;8.306;2023-03-20T05:37:36;37.92;;;15.75;;
56670;SDS011;42545;50.054;8.306;2023-03-20T05:40:03;32.67;;;14.25;;
56670;SDS011;42545;50.054;8.306;2023-03-20T05:42:31;35.63;;;15.18;;
56670;SDS011;42545;50.054;8.306;2023-03-20T05:44:58;36.03;;;15.50;;
56670;SDS011;42545;50.054;8.306;2023-03-20T05:47:25;35.10;;;14.40;;
56670;SDS011;42545;50.054;8.306;2023-03-20T05:49:53;28.52;;;12.73;;
56670;SDS011;42545;50.054;8.306;2023-03-20T05:52:22;30.08;;;12.45;;
56670;SDS011;42545;50.054;8.306;2023-03-20T05:54:51;24.50;;;10.68;;
56670;SDS011;42545;50.054;8.306;2023-03-20T05:57:17;28.90;;;12.23;;
56670;SDS011;42545;50.054;8.306;2023-03-20T05:59:46;27.35;;;12.10;;
56670;SDS011;42545;50.054;8.306;2023-03-20T06:02:13;24.85;;;11.77;;
56670;SDS011;42545;50.054;8.306;2023-03-20T06:04:40;24.15;;;11.57;;
56670;SDS011;42545;50.054;8.306;2023-03-20T06:07:06;24.23;;;11.70;;
56670;SDS011;42545;50.054;8.306;2023-03-20T06:09:33;33.80;;;14.65;;
56670;SDS011;42545;50.054;8.306;2023-03-20T06:12:01;30.45;;;14.38;;
56670;SDS011;42545;50.054;8.306;2023-03-20T06:14:28;27.15;;;12.45;;
56670;SDS011;42545;50.054;8.306;2023-03-20T06:16:55;25.20;;;12.02;;
56670;SDS011;42545;50.054;8.306;2023-03-20T06:19:22;24.00;;;11.63;;
56670;SDS011;42545;50.054;8.306;2023-03-20T06:21:49;23.98;;;10.93;;
56670;SDS011;42545;50.054;8.306;2023-03-20T06:24:17;24.35;;;10.63;;
56670;SDS011;42545;50.054;8.306;2023-03-20T06:26:44;21.98;;;10.60;;
56670;SDS011;42545;50.054;8.306;2023-03-20T06:29:12;18.70;;;9.25;;
56670;SDS011;42545;50.054;8.306;2023-03-20T06:31:39;24.88;;;11.27;;
56670;SDS011;42545;50.054;8.306;2023-03-20T06:34:06;30.98;;;13.85;;
56670;SDS011;42545;50.054;8.306;2023-03-20T06:36:32;27.67;;;13.23;;
56670;SDS011;42545;50.054;8.306;2023-03-20T06:38:59;34.67;;;17.27;;
56670;SDS011;42545;50.054;8.306;2023-03-20T06:41:26;35.90;;;16.33;;
56670;SDS011;42545;50.054;8.306;2023-03-20T06:43:53;33.20;;;15.88;;
56670;SDS011;42545;50.054;8.306;2023-03-20T06:46:21;29.65;;;13.93;;
56670;SDS011;42545;50.054;8.306;2023-03-20T06:48:48;26.58;;;13.43;;
56670;SDS011;42545;50.054;8.306;2023-03-20T06:51:16;42.72;;;18.85;;
56670;SDS011;42545;50.054;8.306;2023-03-20T06:53:42;41.67;;;17.95;;
56670;SDS011;42545;50.054;8.306;2023-03-20T06:56:09;33.53;;;16.80;;
56670;SDS011;42545;50.054;8.306;2023-03-20T06:58:37;31.65;;;15.20;;
56670;SDS011;42545;50.054;8.306;2023-03-20T07:01:07;33.20;;;15.15;;
56670;SDS011;42545;50.054;8.306;2023-03-20T07:03:36;31.15;;;13.48;;
56670;SDS011;42545;50.054;8.306;2023-03-20T07:06:05;26.38;;;13.30;;
56670;SDS011;42545;50.054;8.306;2023-03-20T07:08:32;22.45;;;11.45;;
56670;SDS011;42545;50.054;8.306;2023-03-20T07:11:00;22.83;;;11.63;;
56670;SDS011;42545;50.054;8.306;2023-03-20T07:13:28;24.27;;;11.55;;
56670;SDS011;42545;50.054;8.306;2023-03-20T07:15:55;22.30;;;11.13;;
56670;SDS011;42545;50.054;8.306;2023-03-20T07:18:22;18.90;;;10.00;;
56670;SDS011;42545;50.054;8.306;2023-03-20T07:20:51;17.80;;;9.40;;
56670;SDS011;42545;50.054;8.306;2023-03-20T07:23:19;17.10;;;8.63;;
56670;SDS011;42545;50.054;8.306;2023-03-20T07:25:46;17.10;;;8.93;;
56670;SDS011;42545;50.054;8.306;2023-03-20T07:28:12;18.13;;;8.93;;
56670;SDS011;42545;50.054;8.306;2023-03-20T07:30:39;21.33;;;9.52;;
56670;SDS011;42545;50.054;8.306;2023-03-20T07:33:06;22.02;;;11.15;;
56670;SDS011;42545;50.054;8.306;2023-03-20T07:35:33;22.30;;;11.65;;
56670;SDS011;42545;50.054;8.306;2023-03-20T07:38:02;24.52;;;12.63;;
56670;SDS011;42545;50.054;8.306;2023-03-20T07:40:28;24.45;;;12.90;;
56670;SDS011;42545;50.054;8.306;2023-03-20T07:42:56;25.40;;;12.23;;
56670;SDS011;42545;50.054;8.306;2023-03-20T07:45:22;19.23;;;10.93;;
56670;SDS011;42545;50.054;8.306;2023-03-20T07:47:49;22.45;;;10.38;;
56670;SDS011;42545;50.054;8.306;2023-03-20T07:50:16;20.13;;;10.68;;
56670;SDS011;42545;50.054;8.306;2023-03-20T07:52:44;26.73;;;12.48;;
56670;SDS011;42545;50.054;8.306;2023-03-20T07:55:13;20.13;;;11.10;;
56670;SDS011;42545;50.054;8.306;2023-03-20T07:57:41;19.87;;;10.50;;
56670;SDS011;42545;50.054;8.306;2023-03-20T08:00:08;17.92;;;9.35;;
56670;SDS011;42545;50.054;8.306;2023-03-20T08:02:35;22.27;;;11.75;;
56670;SDS011;42545;50.054;8.306;2023-03-20T08:05:02;22.40;;;11.38;;
56670;SDS011;42545;50.054;8.306;2023-03-20T08:07:29;31.98;;;14.48;;
56670;SDS011;42545;50.054;8.306;2023-03-20T08:09:56;27.13;;;12.07;;
56670;SDS011;42545;50.054;8.306;2023-03-20T08:12:32;22.85;;;11.27;;
56670;SDS011;42545;50.054;8.306;2023-03-20T08:14:59;24.38;;;11.88;;
56670;SDS011;42545;50.054;8.306;2023-03-20T08:17:26;24.63;;;11.38;;
56670;SDS011;42545;50.054;8.306;2023-03-20T08:19:52;20.30;;;10.50;;
56670;SDS011;42545;50.054;8.306;2023-03-20T08:22:19;22.02;;;11.48;;
56670;SDS011;42545;50.054;8.306;2023-03-20T08:24:46;19.65;;;10.30;;
56670;SDS011;42545;50.054;8.306;2023-03-20T08:27:12;27.70;;;12.52;;
56670;SDS011;42545;50.054;8.306;2023-03-20T08:29:41;22.45;;;10.70;;
56670;SDS011;42545;50.054;8.306;2023-03-20T08:32:08;21.65;;;9.85;;
56670;SDS011;42545;50.054;8.306;2023-03-20T08:34:35;22.52;;;10.52;;
56670;SDS011;42545;50.054;8.306;2023-03-20T08:37:02;25.10;;;12.20;;
56670;SDS011;42545;50.054;8.306;2023-03-20T08:39:32;27.88;;;13.35;;
56670;SDS011;42545;50.054;8.306;2023-03-20T08:41:59;39.65;;;18.08;;
56670;SDS011;42545;50.054;8.306;2023-03-20T08:44:26;29.35;;;14.23;;
56670;SDS011;42545;50.054;8.306;2023-03-20T08:46:55;34.67;;;16.98;;
56670;SDS011;42545;50.054;8.306;2023-03-20T08:49:21;30.48;;;14.05;;
56670;SDS011;42545;50.054;8.306;2023-03-20T08:51:51;35.85;;;16.95;;
56670;SDS011;42545;50.054;8.306;2023-03-20T08:54:18;30.75;;;15.75;;
56670;SDS011;42545;50.054;8.306;2023-03-20T08:56:45;28.42;;;14.07;;
56670;SDS011;42545;50.054;8.306;2023-03-20T08:59:11;28.65;;;13.68;;
56670;SDS011;42545;50.054;8.306;2023-03-20T09:01:38;31.33;;;15.07;;
56670;SDS011;42545;50.054;8.306;2023-03-20T09:04:06;26.05;;;13.40;;
56670;SDS011;42545;50.054;8.306;2023-03-20T09:06:35;28.08;;;14.05;;
56670;SDS011;42545;50.054;8.306;2023-03-20T09:09:02;28.23;;;13.65;;
56670;SDS011;42545;50.054;8.306;2023-03-20T09:11:30;33.80;;;17.23;;
56670;SDS011;42545;50.054;8.306;2023-03-20T09:13:57;34.53;;;16.55;;
56670;SDS011;42545;50.054;8.306;2023-03-20T09:16:24;33.17;;;16.40;;
56670;SDS011;42545;50.054;8.306;2023-03-20T09:18:52;33.03;;;16.10;;
56670;SDS011;42545;50.054;8.306;2023-03-20T09:21:21;29.40;;;14.48;;
56670;SDS011;42545;50.054;8.306;2023-03-20T09:23:47;28.73;;;14.75;;
56670;SDS011;42545;50.054;8.306;2023-03-20T09:26:14;29.30;;;14.45;;
56670;SDS011;42545;50.054;8.306;2023-03-20T09:28:41;26.50;;;14.25;;
56670;SDS011;42545;50.054;8.306;2023-03-20T09:31:07;30.17;;;15.75;;
56670;SDS011;42545;50.054;8.306;2023-03-20T09:33:34;25.42;;;14.07;;
56670;SDS011;42545;50.054;8.306;2023-03-20T09:36:01;24.73;;;12.68;;
56670;SDS011;42545;50.054;8.306;2023-03-20T09:38:30;18.90;;;10.70;;
56670;SDS011;42545;50.054;8.306;2023-03-20T09:40:57;22.42;;;12.23;;
56670;SDS011;42545;50.054;8.306;2023-03-20T09:43:28;22.88;;;13.15;;
56670;SDS011;42545;50.054;8.306;2023-03-20T09:46:13;23.85;;;12.63;;
56670;SDS011;42545;50.054;8.306;2023-03-20T09:48:48;20.88;;;12.13;;
56670;SDS011;42545;50.054;8.306;2023-03-20T09:51:25;20.33;;;12.48;;
56670;SDS011;42545;50.054;8.306;2023-03-20T09:54:00;19.70;;;10.48;;
56670;SDS011;42545;50.054;8.306;2023-03-20T09:56:31;19.95;;;11.52;;
56670;SDS011;42545;50.054;8.306;2023-03-20T09:58:59;16.42;;;10.20;;
56670;SDS011;42545;50.054;8.306;2023-03-20T10:01:29;18.25;;;10.15;;
56670;SDS011;42545;50.054;8.306;2023-03-20T10:04:03;18.25;;;10.88;;
56670;SDS011;42545;50.054;8.306;2023-03-20T10:06:33;18.75;;;10.38;;
56670;SDS011;42545;50.054;8.306;2023-03-20T10:09:03;15.50;;;9.20;;
56670;SDS011;42545;50.054;8.306;2023-03-20T10:11:55;16.97;;;9.63;;
56670;SDS011;42545;50.054;8.306;2023-03-20T10:14:36;14.13;;;8.88;;
56670;SDS011;42545;50.054;8.306;2023-03-20T10:17:24;13.98;;;8.30;;
56670;SDS011;42545;50.054;8.306;2023-03-20T10:20:00;16.73;;;8.75;;
56670;SDS011;42545;50.054;8.306;2023-03-20T10:22:37;12.57;;;7.18;;
56670;SDS011;42545;50.054;8.306;2023-03-20T10:25:14;13.88;;;7.43;;
56670;SDS011;42545;50.054;8.306;2023-03-20T10:27:48;11.43;;;7.07;;
56670;SDS011;42545;50.054;8.306;2023-03-20T10:30:22;11.20;;;6.75;;
56670;SDS011;42545;50.054;8.306;2023-03-20T10:33:00;10.13;;;6.35;;
56670;SDS011;42545;50.054;8.306;2023-03-20T10:35:38;12.27;;;8.02;;
56670;SDS011;42545;50.054;8.306;2023-03-20T10:38:16;10.45;;;6.43;;
56670;SDS011;42545;50.054;8.306;2023-03-20T10:40:54;10.98;;;6.15;;
56670;SDS011;42545;50.054;8.306;2023-03-20T10:43:23;10.73;;;6.47;;
56670;SDS011;42545;50.054;8.306;2023-03-20T10:45:56;8.30;;;5.28;;
56670;SDS011;42545;50.054;8.306;2023-03-20T10:48:29;7.78;;;5.45;;
56670;SDS011;42545;50.054;8.306;2023-03-20T10:50:59;7.35;;;5.15;;
56670;SDS011;42545;50.054;8.306;2023-03-20T10:53:29;9.23;;;5.53;;
56670;SDS011;42545;50.054;8.306;2023-03-20T10:56:04;10.90;;;6.28;;
56670;SDS011;42545;50.054;8.306;2023-03-20T10:58:33;8.52;;;5.28;;
56670;SDS011;42545;50.054;8.306;2023-03-20T11:01:06;7.45;;;4.55;;
56670;SDS011;42545;50.054;8.306;2023-03-20T11:03:33;7.60;;;4.50;;
56670;SDS011;42545;50.054;8.306;2023-03-20T11:06:04;7.88;;;4.55;;
56670;SDS011;42545;50.054;8.306;2023-03-20T11:08:38;6.60;;;4.53;;
56670;SDS011;42545;50.054;8.306;2023-03-20T11:11:10;15.85;;;5.05;;
56670;SDS011;42545;50.054;8.306;2023-03-20T11:13:37;8.00;;;5.05;;
56670;SDS011;42545;50.054;8.306;2023-03-20T11:16:08;6.05;;;3.75;;
56670;SDS011;42545;50.054;8.306;2023-03-20T11:21:06;6.13;;;4.15;;
56670;SDS011;42545;50.054;8.306;2023-03-20T11:23:39;4.97;;;3.47;;
56670;SDS011;42545;50.054;8.306;2023-03-20T11:26:09;5.65;;;3.80;;
56670;SDS011;42545;50.054;8.306;2023-03-20T11:28:40;6.25;;;3.80;;
56670;SDS011;42545;50.054;8.306;2023-03-20T11:31:18;8.15;;;4.57;;
56670;SDS011;42545;50.054;8.306;2023-03-20T11:33:51;6.55;;;4.22;;
56670;SDS011;42545;50.054;8.306;2023-03-20T11:36:26;8.05;;;4.03;;
56670;SDS011;42545;50.054;8.306;2023-03-20T11:38:57;5.38;;;3.50;;
56670;SDS011;42545;50.054;8.306;2023-03-20T11:41:28;4.45;;;3.33;;
56670;SDS011;42545;50.054;8.306;2023-03-20T11:43:54;4.80;;;3.22;;
56670;SDS011;42545;50.054;8.306;2023-03-20T11:46:22;5.75;;;3.63;;
56670;SDS011;42545;50.054;8.306;2023-03-20T11:49:06;5.45;;;3.03;;
56670;SDS011;42545;50.054;8.306;2023-03-20T11:51:44;3.53;;;2.90;;
56670;SDS011;42545;50.054;8.306;2023-03-20T11:54:13;6.78;;;3.25;;
56670;SDS011;42545;50.054;8.306;2023-03-20T11:56:51;7.45;;;3.70;;
56670;SDS011;42545;50.054;8.306;2023-03-20T11:59:20;2.88;;;2.53;;
56670;SDS011;42545;50.054;8.306;2023-03-20T12:01:50;3.08;;;2.20;;
56670;SDS011;42545;50.054;8.306;2023-03-20T12:04:19;3.13;;;2.28;;
56670;SDS011;42545;50.054;8.306;2023-03-20T12:06:53;4.13;;;2.50;;
56670;SDS011;42545;50.054;8.306;2023-03-20T12:09:30;8.38;;;3.00;;
56670;SDS011;42545;50.054;8.306;2023-03-20T12:12:04;7.05;;;2.25;;
56670;SDS011;42545;50.054;8.306;2023-03-20T12:14:42;2.97;;;1.80;;
56670;SDS011;42545;50.054;8.306;2023-03-20T12:17:28;5.00;;;2.33;;
56670;SDS011;42545;50.054;8.306;2023-03-20T12:20:00;3.13;;;2.13;;
56670;SDS011;42545;50.054;8.306;2023-03-20T12:22:33;3.85;;;2.63;;
56670;SDS011;42545;50.054;8.306;2023-03-20T12:25:06;2.47;;;1.70;;
56670;SDS011;42545;50.054;8.306;2023-03-20T12:27:44;5.57;;;2.90;;
56670;SDS011;42545;50.054;8.306;2023-03-20T12:30:18;4.78;;;2.15;;
56670;SDS011;42545;50.054;8.306;2023-03-20T12:32:53;4.30;;;2.38;;
56670;SDS011;42545;50.054;8.306;2023-03-20T12:35:26;5.32;;;2.63;;
56670;SDS011;42545;50.054;8.306;2023-03-20T12:37:54;3.13;;;1.80;;
56670;SDS011;42545;50.054;8.306;2023-03-20T12:40:23;2.33;;;1.70;;
56670;SDS011;42545;50.054;8.306;2023-03-20T12:43:04;3.72;;;2.10;;
56670;SDS011;42545;50.054;8.306;2023-03-20T12:45:37;4.13;;;2.03;;
56670;SDS011;42545;50.054;8.306;2023-03-20T12:48:11;5.55;;;2.20;;
56670;SDS011;42545;50.054;8.306;2023-03-20T12:51:02;3.80;;;2.42;;
56670;SDS011;42545;50.054;8.306;2023-03-20T12:53:36;5.05;;;2.00;;
56670;SDS011;42545;50.054;8.306;2023-03-20T12:56:15;4.93;;;1.98;;
56670;SDS011;42545;50.054;8.306;2023-03-20T12:58:51;5.28;;;2.15;;
56670;SDS011;42545;50.054;8.306;2023-03-20T13:01:26;3.38;;;1.80;;
56670;SDS011;42545;50.054;8.306;2023-03-20T13:04:09;4.03;;;1.95;;
56670;SDS011;42545;50.054;8.306;2023-03-20T13:06:53;3.92;;;2.20;;
56670;SDS011;42545;50.054;8.306;2023-03-20T13:09:38;7.20;;;2.30;;
56670;SDS011;42545;50.054;8.306;2023-03-20T13:12:18;4.82;;;1.98;;
56670;SDS011;42545;50.054;8.306;2023-03-20T13:15:01;1.88;;;1.63;;
56670;SDS011;42545;50.054;8.306;2023-03-20T13:17:40;3.75;;;1.95;;
56670;SDS011;42545;50.054;8.306;2023-03-20T13:20:15;4.60;;;2.20;;
56670;SDS011;42545;50.054;8.306;2023-03-20T13:22:49;3.30;;;1.75;;
56670;SDS011;42545;50.054;8.306;2023-03-20T13:25:27;2.75;;;1.67;;
56670;SDS011;42545;50.054;8.306;2023-03-20T13:28:10;2.85;;;1.92;;
56670;SDS011;42545;50.054;8.306;2023-03-20T13:30:48;4.55;;;1.90;;
56670;SDS011;42545;50.054;8.306;2023-03-20T13:33:25;4.82;;;2.13;;
56670;SDS011;42545;50.054;8.306;2023-03-20T13:36:03;4.05;;;2.17;;
56670;SDS011;42545;50.054;8.306;2023-03-20T13:38:36;3.13;;;2.25;;
56670;SDS011;42545;50.054;8.306;2023-03-20T13:41:09;4.60;;;2.70;;
56670;SDS011;42545;50.054;8.306;2023-03-20T13:43:36;6.50;;;2.25;;
56670;SDS011;42545;50.054;8.306;2023-03-20T13:46:11;4.07;;;2.40;;
56670;SDS011;42545;50.054;8.306;2023-03-20T13:48:42;3.45;;;2.20;;
56670;SDS011;42545;50.054;8.306;2023-03-20T13:51:17;4.68;;;2.00;;
56670;SDS011;42545;50.054;8.306;2023-03-20T13:53:54;5.00;;;2.70;;
56670;SDS011;42545;50.054;8.306;2023-03-20T13:56:29;4.45;;;2.50;;
56670;SDS011;42545;50.054;8.306;2023-03-20T13:59:08;4.20;;;2.50;;
56670;SDS011;42545;50.054;8.306;2023-03-20T14:01:55;6.07;;;2.88;;
56670;SDS011;42545;50.054;8.306;2023-03-20T14:04:30;4.20;;;2.90;;
56670;SDS011;42545;50.054;8.306;2023-03-20T14:06:59;4.07;;;2.58;;
56670;SDS011;42545;50.054;8.306;2023-03-20T14:09:27;2.90;;;2.33;;
56670;SDS011;42545;50.054;8.306;2023-03-20T14:11:57;2.90;;;2.30;;
56670;SDS011;42545;50.054;8.306;2023-03-20T14:14:27;5.10;;;2.83;;
56670;SDS011;42545;50.054;8.306;2023-03-20T14:17:02;5.07;;;2.97;;
56670;SDS011;42545;50.054;8.306;2023-03-20T14:19:34;4.05;;;2.80;;
56670;SDS011;42545;50.054;8.306;2023-03-20T14:22:03;4.15;;;2.80;;
56670;SDS011;42545;50.054;8.306;2023-03-20T14:24:33;3.47;;;2.50;;
56670;SDS011;42545;50.054;8.306;2023-03-20T14:27:02;4.35;;;2.60;;
56670;SDS011;42545;50.054;8.306;2023-03-20T14:29:31;3.90;;;2.45;;
56670;SDS011;42545;50.054;8.306;2023-03-20T14:34:48;4.88;;;2.50;;
56670;SDS011;42545;50.054;8.306;2023-03-20T14:37:26;4.22;;;2.67;;
56670;SDS011;42545;50.054;8.306;2023-03-20T14:40:02;3.22;;;2.22;;
56670;SDS011;42545;50.054;8.306;2023-03-20T14:42:39;3.05;;;1.98;;
56670;SDS011;42545;50.054;8.306;2023-03-20T14:45:29;3.88;;;2.10;;
56670;SDS011;42545;50.054;8.306;2023-03-20T14:48:05;4.00;;;2.20;;
56670;SDS011;42545;50.054;8.306;2023-03-20T14:50:38;4.43;;;1.83;;
56670;SDS011;42545;50.054;8.306;2023-03-20T14:53:16;3.20;;;1.85;;
56670;SDS011;42545;50.054;8.306;2023-03-20T14:56:00;3.97;;;1.88;;
56670;SDS011;42545;50.054;8.306;2023-03-20T14:58:45;4.90;;;1.90;;
56670;SDS011;42545;50.054;8.306;2023-03-20T15:01:15;2.00;;;1.38;;
56670;SDS011;42545;50.054;8.306;2023-03-20T15:03:51;2.40;;;1.40;;
56670;SDS011;42545;50.054;8.306;2023-03-20T15:06:21;8.25;;;1.90;;
56670;SDS011;42545;50.054;8.306;2023-03-20T15:08:52;3.03;;;1.70;;